»·PEaware :: N1765R KHQM-S23

N1765R :: KHQM-S23

FLIGHT INFORMATION

Flight Status: Arrived
Operator: Privately registered:
United States
More flights under this callsign
Pilot: Eric S. (19226)
Aircraft: BEECH AIRCRAFT PREMIER
(PRM1)
More flights by this aircraft type
Origin: KHQM Bowerman
United States
Destination: S23 Ione Mun
United States
More flights between these airports :: More routes between these airports
Route: ULESS T263 ARRIE PAE KRUZR T328 PRRKS
File this flight plan on PilotEdge
Remarks:
Altitude:
(Current/Filed)
15,500ft
Speed:
(Current/Filed)
382kts
Departed: 10-Oct-20 12:41 PM
Arrived: 10-Oct-20 01:49 PM
Distance/Time
Traveled:
283nm/1:08
Distance/Time
To Go:
Arrived

Flight Plot

Page will automatically refresh every two minutes.

Flight plan parsing failed; only flown route is shown


Map Options




Map Legend


Flown Route
Filed Route
Departure Airport
Arrival Airport
Navaid (VOR, NDB)
Fix

Horizontal Profiles

Position Reports

Time Latitude Longitude Heading Altitude Ground
Speed
10-Oct-20 12:35 46.973693 -123.927394 122 30ft 0kts
10-Oct-20 12:36 46.973693 -123.927394 122 30ft 0kts
10-Oct-20 12:37 46.973693 -123.927394 122 30ft 0kts
10-Oct-20 12:38 46.973693 -123.927394 122 30ft 0kts
10-Oct-20 12:39 46.972257 -123.927792 260 28ft 29kts
10-Oct-20 12:40 46.961481 -123.978331 230 2450ft 164kts
10-Oct-20 12:41 46.939714 -123.940918 43 5771ft 201kts
10-Oct-20 12:42 46.981829 -123.894519 36 8969ft 196kts
10-Oct-20 12:43 47.008691 -123.820885 65 11567ft 219kts
10-Oct-20 12:44 47.038197 -123.743044 59 14062ft 226kts
10-Oct-20 12:46 47.068350 -123.655596 59 15475ft 274kts
10-Oct-20 12:47 47.105868 -123.546059 60 15461ft 322kts
10-Oct-20 12:48 47.172207 -123.469383 352 15453ft 312kts
10-Oct-20 12:49 47.260795 -123.470695 353 15424ft 324kts
10-Oct-20 12:50 47.337568 -123.398771 48 15410ft 357kts
10-Oct-20 12:51 47.398446 -123.282313 48 15397ft 359kts
10-Oct-20 12:52 47.460295 -123.165054 48 15398ft 360kts
10-Oct-20 12:53 47.522867 -123.046079 49 15394ft 361kts
10-Oct-20 12:54 47.584314 -122.928627 50 15385ft 362kts
10-Oct-20 12:55 47.646213 -122.809595 51 15455ft 361kts
10-Oct-20 12:56 47.707634 -122.691098 51 15459ft 362kts
10-Oct-20 12:57 47.768874 -122.572447 51 15472ft 362kts
10-Oct-20 12:58 47.829269 -122.454953 51 15482ft 363kts
10-Oct-20 12:59 47.884747 -122.346565 51 15485ft 363kts
10-Oct-20 13:00 47.925281 -122.220365 81 15483ft 362kts
10-Oct-20 13:01 47.939236 -122.083090 83 15481ft 362kts
10-Oct-20 13:02 47.953603 -121.936234 83 15478ft 363kts
10-Oct-20 13:02 47.965344 -121.814909 83 15476ft 363kts
10-Oct-20 13:04 47.980591 -121.655276 83 15475ft 363kts
10-Oct-20 13:04 47.990709 -121.547921 83 15476ft 363kts
10-Oct-20 13:05 48.001332 -121.434108 83 15476ft 363kts
10-Oct-20 13:06 48.011456 -121.324449 83 15473ft 363kts
10-Oct-20 13:07 48.030628 -121.113831 84 15440ft 365kts
10-Oct-20 13:08 48.044316 -120.960470 85 15367ft 373kts
10-Oct-20 13:09 48.057952 -120.804574 85 15358ft 378kts
10-Oct-20 13:10 48.072127 -120.640580 85 15359ft 380kts
10-Oct-20 13:11 48.071492 -120.479779 99 15360ft 376kts
10-Oct-20 13:12 48.061351 -120.319364 100 15355ft 376kts
10-Oct-20 13:13 48.050655 -120.153016 100 15351ft 375kts
10-Oct-20 13:14 48.040181 -119.991740 99 15345ft 376kts
10-Oct-20 13:15 48.030674 -119.835275 99 15326ft 376kts
10-Oct-20 13:16 48.020935 -119.678263 99 15313ft 376kts
10-Oct-20 13:17 48.012039 -119.521815 97 15314ft 377kts
10-Oct-20 13:18 48.006037 -119.361572 96 15315ft 378kts
10-Oct-20 13:19 47.999588 -119.195637 97 15309ft 377kts
10-Oct-20 13:20 47.992926 -119.030607 97 15313ft 376kts
10-Oct-20 13:21 48.000374 -118.877447 86 15311ft 380kts
10-Oct-20 13:22 48.009718 -118.745009 85 15323ft 380kts
10-Oct-20 13:23 48.017226 -118.637067 86 15356ft 380kts
10-Oct-20 13:24 48.025094 -118.522178 86 15519ft 377kts
10-Oct-20 13:25 48.037645 -118.334619 86 15527ft 380kts
10-Oct-20 13:26 48.047886 -118.178103 87 15529ft 380kts
10-Oct-20 13:27 48.056041 -118.050967 86 14841ft 359kts
10-Oct-20 13:28 48.065515 -117.936972 76 13706ft 328kts
10-Oct-20 13:29 48.087644 -117.818726 72 12429ft 318kts
10-Oct-20 13:30 48.117387 -117.668918 73 10765ft 320kts
10-Oct-20 13:31 48.141279 -117.546631 75 9366ft 315kts
10-Oct-20 13:32 48.157691 -117.469753 74 9013ft 282kts
10-Oct-20 13:33 48.179264 -117.409333 49 8641ft 273kts
10-Oct-20 13:34 48.210776 -117.354422 49 8251ft 266kts
10-Oct-20 13:35 48.242224 -117.315515 32 8029ft 257kts
10-Oct-20 13:36 48.272691 -117.287607 16 8016ft 243kts
10-Oct-20 13:37 48.301630 -117.289791 338 8028ft 223kts
10-Oct-20 13:38 48.331077 -117.301427 342 7693ft 226kts
10-Oct-20 13:39 48.369046 -117.310880 348 7050ft 222kts
10-Oct-20 13:40 48.404895 -117.315860 352 6319ft 220kts
10-Oct-20 13:41 48.438466 -117.318872 346 6129ft 213kts
10-Oct-20 13:42 48.477443 -117.328897 349 5999ft 208kts
10-Oct-20 13:43 48.508601 -117.335629 346 5947ft 207kts
10-Oct-20 13:44 48.552282 -117.342459 350 5301ft 213kts
10-Oct-20 13:45 48.594842 -117.353366 345 4230ft 211kts
10-Oct-20 13:46 48.657349 -117.378681 336 2579ft 160kts
10-Oct-20 13:47 48.716036 -117.415700 344 2098ft 65kts
10-Oct-20 13:48 48.716068 -117.415805 165 2098ft 31kts
10-Oct-20 13:49 48.709819 -117.413610 167 2116ft 0kts

Navigation Log

Ident Type
Flight plan parsing failed, navigation log unavailable